createdAt,value
2017-12-15T00:01:10.551Z,56.80
2017-12-15T00:03:38.115Z,56.80
2017-12-15T00:06:05.732Z,57.20
2017-12-15T00:08:33.397Z,57.30
2017-12-15T00:11:01.576Z,57.90
2017-12-15T00:13:29.230Z,57.50
2017-12-15T00:15:56.787Z,57.80
2017-12-15T00:18:24.453Z,57.70
2017-12-15T00:20:52.014Z,57.80
2017-12-15T00:23:19.547Z,58.00
2017-12-15T00:25:47.091Z,58.00
2017-12-15T00:28:14.656Z,58.10
2017-12-15T00:30:43.023Z,58.30
2017-12-15T00:33:10.735Z,58.20
2017-12-15T00:35:38.310Z,58.30
2017-12-15T00:38:05.838Z,58.20
2017-12-15T00:40:33.699Z,58.10
2017-12-15T00:43:01.254Z,58.30
2017-12-15T00:45:28.818Z,58.30
2017-12-15T00:47:56.384Z,58.20
2017-12-15T00:50:23.938Z,58.30
2017-12-15T00:52:51.536Z,58.30
2017-12-15T00:55:19.231Z,58.50
2017-12-15T00:57:46.816Z,58.50
2017-12-15T01:00:14.361Z,58.50
2017-12-15T01:02:42.691Z,58.40
2017-12-15T01:05:10.426Z,58.50
2017-12-15T01:07:37.962Z,58.40
2017-12-15T01:10:06.279Z,58.30
2017-12-15T01:12:33.828Z,58.30
2017-12-15T01:15:01.455Z,58.40
2017-12-15T01:17:29.846Z,58.40
2017-12-15T01:19:57.542Z,58.40
2017-12-15T01:22:25.116Z,58.50
2017-12-15T01:24:52.680Z,58.60
2017-12-15T01:27:20.219Z,58.70
2017-12-15T01:29:47.834Z,58.80
2017-12-15T01:32:16.173Z,58.90
2017-12-15T01:34:43.923Z,58.90
2017-12-15T01:37:11.488Z,58.90
2017-12-15T01:39:39.005Z,59.10
2017-12-15T01:42:07.354Z,59.30
2017-12-15T01:44:34.966Z,59.20
2017-12-15T01:47:02.515Z,59.50
2017-12-15T01:49:30.884Z,59.60
2017-12-15T01:51:58.483Z,59.60
2017-12-15T01:54:26.153Z,59.70
2017-12-15T01:56:53.694Z,59.70
2017-12-15T01:59:21.279Z,59.80
2017-12-15T02:01:48.823Z,59.80
2017-12-15T02:04:16.449Z,60.10
2017-12-15T02:06:44.801Z,60.50
2017-12-15T02:09:12.455Z,60.50
2017-12-15T02:11:40.032Z,60.60
2017-12-15T02:14:08.482Z,60.80
2017-12-15T02:16:36.147Z,60.70
2017-12-15T02:19:03.813Z,61.10
2017-12-15T02:21:31.347Z,61.10
2017-12-15T02:23:58.931Z,61.10
2017-12-15T02:26:26.492Z,61.10
2017-12-15T02:28:54.048Z,61.20
2017-12-15T02:31:21.837Z,61.30
2017-12-15T02:33:49.385Z,61.50
2017-12-15T02:36:16.965Z,61.80
2017-12-15T02:38:44.539Z,62.10
2017-12-15T02:41:12.889Z,62.50
2017-12-15T02:43:40.455Z,62.50
2017-12-15T02:46:08.596Z,62.60
2017-12-15T02:48:36.199Z,62.60
2017-12-15T02:51:03.775Z,62.70
2017-12-15T02:53:31.587Z,62.60
2017-12-15T02:55:59.131Z,62.90
2017-12-15T02:58:27.068Z,62.80
2017-12-15T03:00:54.634Z,62.80
2017-12-15T03:03:22.185Z,63.10
2017-12-15T03:05:49.883Z,63.60
2017-12-15T03:08:17.440Z,63.60
2017-12-15T03:10:44.960Z,63.70
2017-12-15T03:13:12.588Z,63.60
2017-12-15T03:15:40.926Z,63.60
2017-12-15T03:18:08.481Z,63.60
2017-12-15T03:20:36.073Z,63.70
2017-12-15T03:23:03.632Z,63.90
2017-12-15T03:25:31.178Z,64.10
2017-12-15T03:27:58.749Z,65.10
2017-12-15T03:30:26.313Z,64.30
2017-12-15T03:32:53.936Z,64.40
2017-12-15T03:35:21.512Z,64.20
2017-12-15T03:37:49.047Z,64.70
2017-12-15T03:40:16.691Z,64.60
2017-12-15T03:42:44.361Z,64.60
2017-12-15T03:45:11.925Z,64.70
2017-12-15T03:47:39.487Z,64.80
2017-12-15T03:50:07.073Z,64.70
2017-12-15T03:52:34.716Z,65.40
2017-12-15T03:55:02.264Z,65.70
2017-12-15T03:57:29.840Z,65.70
2017-12-15T03:59:57.397Z,65.60
2017-12-15T04:02:25.749Z,65.20
2017-12-15T04:04:53.906Z,65.20
2017-12-15T04:07:21.536Z,65.10
2017-12-15T04:09:49.098Z,65.20
2017-12-15T04:12:16.667Z,65.20
2017-12-15T04:14:45.488Z,65.80
2017-12-15T04:17:13.089Z,65.80
2017-12-15T04:19:40.638Z,65.70
2017-12-15T04:22:08.983Z,65.70
2017-12-15T04:24:36.550Z,65.70
2017-12-15T04:27:04.144Z,65.50
2017-12-15T04:29:32.474Z,66.30
2017-12-15T04:32:00.078Z,66.30
2017-12-15T04:34:28.403Z,66.30
2017-12-15T04:36:56.163Z,66.20
2017-12-15T04:39:23.750Z,66.30
2017-12-15T04:41:51.528Z,66.90
2017-12-15T04:44:20.049Z,66.30
2017-12-15T04:46:48.210Z,67.10
2017-12-15T04:49:15.908Z,67.10
2017-12-15T04:51:43.789Z,66.80
2017-12-15T04:54:11.655Z,66.20
2017-12-15T04:56:39.272Z,66.00
2017-12-15T04:59:06.806Z,65.70
2017-12-15T05:01:34.385Z,65.60
2017-12-15T05:04:02.701Z,65.50
2017-12-15T05:06:30.310Z,65.40
2017-12-15T05:08:57.867Z,65.30
2017-12-15T05:11:25.451Z,65.20
2017-12-15T05:13:53.071Z,65.20
2017-12-15T05:16:20.692Z,65.50
2017-12-15T05:18:48.347Z,65.60
2017-12-15T05:21:15.911Z,66.20
2017-12-15T05:23:43.463Z,66.20
2017-12-15T05:26:11.054Z,65.90
2017-12-15T05:28:38.625Z,66.20
2017-12-15T05:31:06.395Z,66.20
2017-12-15T05:33:33.990Z,66.10
2017-12-15T05:36:01.551Z,66.50
2017-12-15T05:38:29.851Z,67.00
2017-12-15T05:40:57.415Z,67.00
2017-12-15T05:43:24.984Z,67.50
2017-12-15T05:45:52.533Z,67.70
2017-12-15T05:48:20.090Z,68.00
2017-12-15T05:50:47.638Z,68.00
2017-12-15T05:53:15.926Z,67.80
2017-12-15T05:55:43.477Z,67.50
2017-12-15T05:58:11.167Z,67.60
2017-12-15T06:00:38.704Z,67.50
2017-12-15T06:03:06.227Z,67.70
2017-12-15T06:05:33.807Z,67.80
2017-12-15T06:08:02.145Z,66.90
2017-12-15T06:10:29.737Z,66.80
2017-12-15T06:12:58.060Z,67.30
2017-12-15T06:15:25.591Z,67.20
2017-12-15T06:17:53.183Z,67.20
2017-12-15T06:20:20.754Z,67.30
2017-12-15T06:22:48.454Z,67.40
2017-12-15T06:25:15.990Z,67.20
2017-12-15T06:27:43.505Z,66.70
2017-12-15T06:30:11.114Z,66.50
2017-12-15T06:32:38.703Z,64.80
2017-12-15T06:35:07.143Z,60.60
2017-12-15T06:37:34.710Z,60.40
2017-12-15T06:40:02.318Z,58.80
2017-12-15T06:42:29.938Z,59.30
2017-12-15T06:44:58.368Z,57.70
2017-12-15T06:47:26.051Z,57.60
2017-12-15T06:49:53.623Z,57.10
2017-12-15T06:52:21.345Z,56.80
2017-12-15T06:54:48.918Z,56.90
2017-12-15T06:57:16.506Z,57.00
2017-12-15T06:59:44.334Z,56.90
2017-12-15T07:02:14.226Z,57.10
2017-12-15T07:04:42.203Z,57.10
2017-12-15T07:07:10.557Z,57.10
2017-12-15T07:09:38.139Z,57.10
2017-12-15T07:12:05.654Z,57.20
2017-12-15T07:14:35.122Z,57.40
2017-12-15T07:17:02.702Z,57.20
2017-12-15T07:19:30.386Z,57.20
2017-12-15T07:21:57.936Z,57.20
2017-12-15T07:24:25.500Z,57.10
2017-12-15T07:26:52.999Z,57.00
2017-12-15T07:29:21.437Z,56.80
2017-12-15T07:31:48.988Z,56.80
2017-12-15T07:34:16.532Z,57.00
2017-12-15T07:36:44.121Z,57.50
2017-12-15T07:39:11.754Z,57.70
2017-12-15T07:41:40.531Z,58.10
2017-12-15T07:44:09.133Z,58.40
2017-12-15T07:46:36.743Z,58.70
2017-12-15T07:49:04.609Z,58.70
2017-12-15T07:51:32.184Z,58.80
2017-12-15T07:53:59.748Z,59.20
2017-12-15T07:56:27.305Z,59.40
2017-12-15T07:58:55.640Z,59.70
2017-12-15T08:01:25.161Z,59.70
2017-12-15T08:03:52.791Z,59.90
2017-12-15T08:06:20.323Z,60.00
2017-12-15T08:08:48.499Z,60.00
2017-12-15T08:11:16.818Z,59.60
2017-12-15T08:13:44.416Z,59.60
2017-12-15T08:16:14.434Z,59.70
2017-12-15T08:18:41.974Z,59.70
2017-12-15T08:21:09.732Z,59.60
2017-12-15T08:23:37.289Z,59.60
2017-12-15T08:26:05.922Z,59.70
2017-12-15T08:28:35.543Z,59.50
2017-12-15T08:31:04.662Z,59.40
2017-12-15T08:33:32.215Z,59.50
2017-12-15T08:35:59.738Z,59.30
2017-12-15T08:38:28.128Z,58.90
2017-12-15T08:40:55.659Z,58.80
2017-12-15T08:43:23.255Z,58.80
2017-12-15T08:45:51.156Z,59.10
2017-12-15T08:48:26.380Z,59.20
2017-12-15T08:50:53.979Z,59.00
2017-12-15T08:53:21.520Z,59.20
2017-12-15T08:55:49.121Z,59.30
2017-12-15T08:58:17.459Z,59.20
2017-12-15T09:00:45.038Z,59.10
2017-12-15T09:03:12.665Z,59.10
2017-12-15T09:05:40.241Z,59.20
2017-12-15T09:08:07.855Z,58.90
2017-12-15T09:10:36.199Z,58.20
2017-12-15T09:13:03.786Z,58.20
2017-12-15T09:15:31.967Z,58.00
2017-12-15T09:18:02.061Z,56.80
2017-12-15T09:20:29.681Z,56.80
2017-12-15T09:22:58.254Z,56.70
2017-12-15T09:25:26.219Z,55.60
2017-12-15T09:27:53.858Z,55.60
2017-12-15T09:30:22.218Z,54.20
2017-12-15T09:32:51.361Z,53.60
2017-12-15T09:35:18.963Z,53.60
2017-12-15T09:37:46.538Z,53.60
2017-12-15T09:40:14.169Z,53.20
2017-12-15T09:42:41.735Z,52.40
2017-12-15T09:45:09.378Z,52.50
2017-12-15T09:47:37.656Z,52.70
2017-12-15T09:50:05.229Z,52.10
2017-12-15T10:05:27.838Z,52.00
2017-12-15T10:07:55.384Z,53.20
2017-12-15T10:10:23.017Z,53.20
2017-12-15T10:12:50.547Z,53.30
2017-12-15T10:15:18.097Z,52.90
2017-12-15T10:17:45.691Z,52.60
2017-12-15T10:20:13.509Z,52.80
2017-12-15T10:22:41.078Z,52.80
2017-12-15T10:25:08.946Z,52.90
2017-12-15T10:27:36.655Z,53.10
2017-12-15T10:30:05.279Z,53.10
2017-12-15T10:32:33.830Z,52.90
2017-12-15T10:35:02.224Z,52.20
2017-12-15T10:37:29.878Z,52.20
2017-12-15T10:39:58.192Z,51.90
2017-12-15T10:42:26.170Z,51.90
2017-12-15T10:44:53.983Z,51.80
2017-12-15T10:47:21.673Z,51.60
2017-12-15T10:49:49.299Z,51.50
2017-12-15T10:52:17.430Z,51.30
2017-12-15T10:54:45.553Z,51.00
2017-12-15T10:57:13.114Z,51.10
2017-12-15T10:59:40.700Z,50.90
2017-12-15T11:02:08.539Z,49.90
2017-12-15T11:04:36.199Z,49.70
2017-12-15T11:07:03.765Z,49.80
2017-12-15T11:09:32.138Z,49.90
2017-12-15T11:11:59.691Z,49.80
2017-12-15T11:14:27.854Z,49.70
2017-12-15T11:16:55.491Z,49.70
2017-12-15T11:19:23.100Z,49.20
2017-12-15T11:21:50.653Z,49.80
2017-12-15T11:24:19.068Z,49.00
2017-12-15T11:26:46.654Z,49.00
2017-12-15T11:29:14.199Z,48.80
2017-12-15T11:31:42.214Z,48.70
2017-12-15T11:34:10.626Z,48.40
2017-12-15T11:36:38.644Z,48.40
2017-12-15T11:39:06.247Z,48.20
2017-12-15T11:41:33.821Z,48.30
2017-12-15T11:44:01.370Z,48.50
2017-12-15T11:46:28.924Z,48.20
2017-12-15T11:48:56.546Z,48.10
2017-12-15T11:51:24.085Z,48.10
2017-12-15T11:53:51.636Z,48.30
2017-12-15T11:56:19.270Z,48.30
2017-12-15T11:58:46.792Z,48.40
2017-12-15T12:01:15.063Z,48.40
2017-12-15T12:03:42.620Z,48.40
2017-12-15T12:06:10.369Z,48.60
2017-12-15T12:08:37.967Z,48.50
2017-12-15T12:11:05.618Z,48.30
2017-12-15T12:13:33.176Z,48.60
2017-12-15T12:16:00.816Z,48.30
2017-12-15T12:18:28.596Z,48.40
2017-12-15T12:20:56.217Z,48.70
2017-12-15T12:23:23.763Z,48.80
2017-12-15T12:25:51.568Z,48.50
2017-12-15T12:28:19.180Z,48.40
2017-12-15T12:30:47.484Z,48.80
2017-12-15T12:33:15.133Z,48.70
2017-12-15T12:35:42.653Z,48.70
2017-12-15T12:38:10.656Z,49.10
2017-12-15T12:40:38.191Z,49.40
2017-12-15T12:43:05.759Z,49.80
2017-12-15T12:45:39.433Z,49.90
2017-12-15T12:48:08.431Z,49.90
2017-12-15T12:50:36.001Z,49.90
2017-12-15T12:53:03.580Z,50.00
2017-12-15T12:55:31.131Z,50.10
2017-12-15T12:57:59.554Z,49.70
2017-12-15T13:00:27.786Z,49.60
2017-12-15T13:02:55.323Z,49.60
2017-12-15T13:05:23.136Z,49.50
2017-12-15T13:07:50.698Z,49.50
2017-12-15T13:10:18.258Z,49.30
2017-12-15T13:12:45.814Z,49.00
2017-12-15T13:15:14.460Z,49.50
2017-12-15T13:17:42.500Z,49.40
2017-12-15T13:20:10.082Z,49.40
2017-12-15T13:22:37.697Z,49.30
2017-12-15T13:25:06.114Z,49.50
2017-12-15T13:27:34.784Z,49.50
2017-12-15T13:30:02.901Z,49.20
2017-12-15T13:32:32.024Z,49.70
2017-12-15T13:34:59.583Z,49.70
2017-12-15T13:37:27.756Z,49.70
2017-12-15T13:39:56.153Z,49.50
2017-12-15T13:42:23.762Z,49.50
2017-12-15T13:44:51.541Z,49.80
2017-12-15T13:47:20.198Z,50.30
2017-12-15T13:49:47.792Z,50.30
2017-12-15T13:52:16.211Z,50.80
2017-12-15T13:54:44.842Z,50.80
2017-12-15T13:57:12.432Z,50.80
2017-12-15T13:59:40.039Z,50.90
2017-12-15T14:02:07.637Z,51.10
2017-12-15T14:04:35.994Z,50.70
2017-12-15T14:07:03.590Z,50.70
2017-12-15T14:09:31.902Z,51.10
2017-12-15T14:11:59.611Z,51.10
2017-12-15T14:14:27.159Z,51.00
2017-12-15T14:16:54.708Z,50.90
2017-12-15T14:19:22.251Z,50.80
2017-12-15T14:21:49.858Z,50.40
2017-12-15T14:24:19.418Z,50.40
2017-12-15T14:26:47.530Z,50.40
2017-12-15T14:29:15.841Z,50.40
2017-12-15T14:31:43.386Z,50.40
2017-12-15T14:34:11.779Z,50.10
2017-12-15T14:36:39.367Z,50.10
2017-12-15T14:39:07.001Z,49.80
2017-12-15T14:41:36.006Z,49.70
2017-12-15T14:44:03.667Z,49.80
2017-12-15T14:46:31.208Z,50.00
2017-12-15T14:48:58.780Z,50.20
2017-12-15T14:51:26.505Z,50.40
2017-12-15T14:53:54.118Z,50.10
2017-12-15T14:56:22.367Z,50.50
2017-12-15T14:58:51.661Z,50.90
2017-12-15T15:01:19.596Z,50.80
2017-12-15T15:03:47.232Z,50.90
2017-12-15T15:06:14.819Z,50.80
2017-12-15T15:08:43.138Z,50.30
2017-12-15T15:11:11.679Z,50.50
2017-12-15T15:13:40.780Z,50.60
2017-12-15T15:16:08.378Z,50.60
2017-12-15T15:18:36.808Z,50.70
2017-12-15T15:21:04.556Z,50.70
2017-12-15T15:23:32.833Z,50.70
2017-12-15T15:26:00.361Z,50.50
2017-12-15T15:28:27.929Z,50.50
2017-12-15T15:30:56.522Z,50.40
2017-12-15T15:33:24.084Z,50.50
2017-12-15T15:35:51.607Z,50.50
2017-12-15T15:38:20.169Z,50.30
2017-12-15T15:40:47.764Z,50.30
2017-12-15T15:43:15.552Z,50.20
2017-12-15T15:45:43.271Z,50.00
2017-12-15T15:48:11.607Z,50.40
2017-12-15T15:50:39.132Z,50.60
2017-12-15T15:53:07.497Z,50.60
2017-12-15T15:55:36.138Z,51.00
2017-12-15T15:58:03.743Z,50.90
2017-12-15T16:00:31.312Z,51.20
2017-12-15T16:02:58.970Z,51.40
2017-12-15T16:05:27.305Z,51.20
2017-12-15T16:07:54.872Z,51.20
2017-12-15T16:10:22.493Z,51.40
2017-12-15T16:12:50.079Z,51.50
2017-12-15T16:15:18.327Z,51.60
2017-12-15T16:17:45.890Z,51.70
2017-12-15T16:20:13.489Z,51.60
2017-12-15T16:22:41.075Z,51.60
2017-12-15T16:25:09.192Z,51.80
2017-12-15T16:27:36.890Z,51.90
2017-12-15T16:30:05.172Z,51.80
2017-12-15T16:32:32.748Z,52.00
2017-12-15T16:35:01.099Z,52.40
2017-12-15T16:37:28.844Z,52.30
2017-12-15T16:39:56.445Z,52.30
2017-12-15T16:42:24.020Z,52.50
2017-12-15T16:44:51.607Z,52.50
2017-12-15T16:47:19.227Z,52.60
2017-12-15T16:49:46.860Z,52.70
2017-12-15T16:52:14.576Z,52.50
2017-12-15T16:54:42.135Z,52.60
2017-12-15T16:57:09.683Z,52.40
2017-12-15T16:59:37.298Z,52.20
2017-12-15T17:02:04.853Z,52.10
2017-12-15T17:04:32.411Z,52.00
2017-12-15T17:07:00.019Z,51.90
2017-12-15T17:09:28.357Z,51.80
2017-12-15T17:11:56.010Z,51.80
2017-12-15T17:14:23.615Z,51.50
2017-12-15T17:16:51.165Z,51.50
2017-12-15T17:19:18.847Z,51.10
2017-12-15T17:21:46.401Z,51.40
2017-12-15T17:24:14.044Z,51.20
2017-12-15T17:26:41.622Z,51.30
2017-12-15T17:29:10.044Z,51.00
2017-12-15T17:31:37.634Z,51.00
2017-12-15T17:34:05.209Z,50.80
2017-12-15T17:36:32.770Z,50.60
2017-12-15T17:39:00.377Z,50.30
2017-12-15T17:41:28.870Z,50.10
2017-12-15T17:43:56.411Z,49.90
2017-12-15T17:46:23.988Z,50.20
2017-12-15T17:48:51.558Z,50.10
2017-12-15T17:51:19.148Z,49.70
2017-12-15T17:53:46.693Z,49.80
2017-12-15T17:56:14.327Z,50.00
2017-12-15T17:58:41.896Z,50.40
2017-12-15T18:01:09.458Z,50.40
2017-12-15T18:03:37.068Z,50.30
2017-12-15T18:06:04.645Z,50.10
2017-12-15T18:08:32.922Z,50.00
2017-12-15T18:11:00.451Z,50.00
2017-12-15T18:13:28.072Z,50.00
2017-12-15T18:15:55.642Z,50.10
2017-12-15T18:18:23.658Z,50.10
2017-12-15T18:20:51.211Z,50.10
2017-12-15T18:23:19.851Z,49.80
2017-12-15T18:25:47.380Z,49.80
2017-12-15T18:28:14.903Z,50.00
2017-12-15T18:30:42.449Z,50.20
2017-12-15T18:33:10.014Z,50.40
2017-12-15T18:35:37.588Z,50.70
2017-12-15T18:38:05.160Z,50.90
2017-12-15T18:40:33.498Z,52.00
2017-12-15T18:43:01.115Z,52.00
2017-12-15T18:45:29.002Z,51.80
2017-12-15T18:47:56.589Z,52.00
2017-12-15T18:50:24.180Z,52.40
2017-12-15T18:52:52.009Z,52.40
2017-12-15T18:55:19.562Z,52.30
2017-12-15T18:57:47.132Z,52.40
2017-12-15T19:00:14.836Z,52.10
2017-12-15T19:02:43.164Z,52.00
2017-12-15T19:05:10.798Z,52.00
2017-12-15T19:07:38.381Z,51.80
2017-12-15T19:10:06.902Z,51.60
2017-12-15T19:12:34.518Z,51.40
2017-12-15T19:15:02.250Z,51.30
2017-12-15T19:17:31.614Z,51.50
2017-12-15T19:19:59.262Z,51.50
2017-12-15T19:22:26.863Z,51.30
2017-12-15T19:24:54.440Z,51.30
2017-12-15T19:27:22.846Z,51.00
2017-12-15T19:29:50.431Z,51.00
2017-12-15T19:32:18.038Z,51.00
2017-12-15T19:34:46.379Z,50.90
2017-12-15T19:37:13.998Z,50.80
2017-12-15T19:39:41.590Z,50.70
2017-12-15T19:42:09.155Z,50.70
2017-12-15T19:44:36.738Z,50.50
2017-12-15T19:47:04.359Z,50.50
2017-12-15T19:49:32.004Z,50.50
2017-12-15T19:51:59.607Z,50.20
2017-12-15T19:54:27.908Z,49.90
2017-12-15T19:56:56.306Z,49.80
2017-12-15T19:59:25.693Z,49.60
2017-12-15T20:01:53.213Z,49.60
2017-12-15T20:04:20.853Z,49.70
2017-12-15T20:06:48.473Z,49.70
2017-12-15T20:09:16.923Z,49.70
2017-12-15T20:11:45.522Z,49.70
2017-12-15T20:14:13.078Z,49.70
2017-12-15T20:16:40.716Z,49.70
2017-12-15T20:19:08.446Z,49.70
2017-12-15T20:21:36.076Z,49.80
2017-12-15T20:24:03.686Z,49.80
2017-12-15T20:26:31.249Z,49.80
2017-12-15T20:28:58.866Z,50.50
2017-12-15T20:31:26.377Z,50.00
2017-12-15T20:33:53.952Z,50.00
2017-12-15T20:36:21.622Z,49.90
2017-12-15T20:38:49.175Z,49.70
2017-12-15T20:41:16.714Z,49.80
2017-12-15T20:43:44.295Z,49.80
2017-12-15T20:46:12.166Z,49.80
2017-12-15T20:48:39.735Z,49.70
2017-12-15T20:51:07.287Z,49.70
2017-12-15T20:53:34.943Z,49.70
2017-12-15T20:56:03.163Z,49.80
2017-12-15T20:58:31.535Z,49.90
2017-12-15T21:01:00.970Z,50.00
2017-12-15T21:03:28.847Z,49.90
2017-12-15T21:05:56.463Z,50.10
2017-12-15T21:08:24.799Z,50.40
2017-12-15T21:10:52.403Z,50.40
2017-12-15T21:13:20.771Z,50.70
2017-12-15T21:15:48.312Z,50.60
2017-12-15T21:18:15.945Z,50.80
2017-12-15T21:20:43.557Z,50.90
2017-12-15T21:23:11.875Z,50.80
2017-12-15T21:25:39.877Z,50.80
2017-12-15T21:28:07.465Z,50.80
2017-12-15T21:30:35.875Z,50.90
2017-12-15T21:33:03.429Z,50.90
2017-12-15T21:35:30.992Z,50.80
2017-12-15T21:37:59.279Z,50.80
2017-12-15T21:40:26.935Z,51.00
2017-12-15T21:42:54.543Z,50.80
2017-12-15T21:45:22.150Z,50.80
2017-12-15T21:47:49.703Z,51.00
2017-12-15T21:50:17.299Z,51.00
2017-12-15T21:52:44.880Z,51.00
2017-12-15T21:55:12.454Z,51.10
2017-12-15T21:57:40.932Z,51.40
2017-12-15T22:00:08.614Z,51.60
2017-12-15T22:02:36.951Z,51.60
2017-12-15T22:05:06.151Z,51.60
2017-12-15T22:07:33.768Z,51.40
2017-12-15T22:10:02.358Z,50.90
2017-12-15T22:12:29.904Z,50.90
2017-12-15T22:14:58.256Z,50.70
2017-12-15T22:17:25.778Z,50.70
2017-12-15T22:19:53.369Z,50.80
2017-12-15T22:22:21.016Z,50.80
2017-12-15T22:24:48.618Z,50.80
2017-12-15T22:27:16.923Z,50.80
2017-12-15T22:29:44.476Z,50.80
2017-12-15T22:32:12.075Z,50.80
2017-12-15T22:34:40.229Z,50.80
2017-12-15T22:37:08.559Z,50.80
2017-12-15T22:39:36.172Z,50.90
2017-12-15T22:42:03.734Z,51.10
2017-12-15T22:44:31.298Z,51.10
2017-12-15T22:46:58.859Z,51.40
2017-12-15T22:49:26.385Z,51.50
2017-12-15T22:51:53.964Z,51.70
2017-12-15T22:54:21.522Z,52.20
2017-12-15T22:56:49.092Z,52.30
2017-12-15T22:59:16.709Z,52.20
2017-12-15T23:01:45.022Z,51.80
2017-12-15T23:04:12.682Z,51.70
2017-12-15T23:06:40.245Z,51.80
2017-12-15T23:09:07.852Z,51.80
2017-12-15T23:11:35.426Z,51.70
2017-12-15T23:14:03.027Z,52.10
2017-12-15T23:16:30.582Z,52.20
2017-12-15T23:18:58.183Z,52.10
2017-12-15T23:21:25.764Z,51.80
2017-12-15T23:23:54.130Z,51.70
2017-12-15T23:26:22.520Z,51.50
2017-12-15T23:28:51.120Z,51.50
2017-12-15T23:31:19.485Z,51.40
2017-12-15T23:33:47.850Z,51.50
2017-12-15T23:36:15.391Z,51.50
2017-12-15T23:38:42.960Z,51.40
2017-12-15T23:41:10.698Z,51.10
2017-12-15T23:43:38.252Z,51.30
2017-12-15T23:46:06.215Z,51.30
2017-12-15T23:48:33.756Z,51.30
2017-12-15T23:51:01.340Z,51.20
2017-12-15T23:53:28.897Z,51.00
2017-12-15T23:56:08.503Z,51.00
2017-12-15T23:58:36.208Z,50.90
